createdAt,value
2023-02-01T00:04:16.290Z,97619.72
2023-02-01T00:09:08.683Z,97616.44
2023-02-01T00:14:00.571Z,97609.03
2023-02-01T00:18:59.014Z,97608.38
2023-02-01T00:23:50.944Z,97598.94
2023-02-01T00:28:42.718Z,97597.00
2023-02-01T00:33:35.377Z,97594.41
2023-02-01T00:38:28.617Z,97587.91
2023-02-01T00:43:20.526Z,97585.47
2023-02-01T00:48:12.406Z,97583.34
2023-02-01T00:53:04.077Z,97579.00
2023-02-01T00:57:55.908Z,97582.72
2023-02-01T01:02:47.602Z,97577.88
2023-02-01T01:07:39.354Z,97565.53
2023-02-01T01:12:31.430Z,97577.84
2023-02-01T01:17:23.124Z,97595.22
2023-02-01T01:22:14.809Z,97594.69
2023-02-01T01:27:06.532Z,97587.28
2023-02-01T01:31:58.257Z,97584.00
2023-02-01T01:36:49.954Z,97577.84
2023-02-01T01:41:41.618Z,97579.28
2023-02-01T01:46:39.256Z,97582.72
2023-02-01T01:51:35.746Z,97583.69
2023-02-01T01:56:31.754Z,97571.19
2023-02-01T02:01:23.490Z,97563.53
2023-02-01T02:06:26.531Z,97565.69
2023-02-01T02:11:18.924Z,97542.63
2023-02-01T02:16:41.932Z,97542.47
2023-02-01T02:21:46.899Z,97543.13
2023-02-01T02:27:39.051Z,97542.47
2023-02-01T02:33:04.711Z,97542.81
2023-02-01T02:38:12.950Z,97549.78
2023-02-01T02:43:44.825Z,97551.56
2023-02-01T02:48:53.335Z,97547.03
2023-02-01T02:54:16.664Z,97535.03
2023-02-01T02:59:32.477Z,97529.00
2023-02-01T03:04:24.445Z,97525.16
2023-02-01T03:09:50.409Z,97530.84
2023-02-01T03:14:47.830Z,97525.03
2023-02-01T03:19:50.920Z,97531.06
2023-02-01T03:24:54.757Z,97559.13
2023-02-01T03:30:10.513Z,97543.22
2023-02-01T03:35:05.456Z,97532.53
2023-02-01T03:40:12.503Z,97524.41
2023-02-01T03:45:32.185Z,97535.78
2023-02-01T03:50:28.574Z,97532.22
2023-02-01T03:55:24.374Z,97535.47
2023-02-01T04:00:26.214Z,97541.78
2023-02-01T04:05:18.272Z,97552.47
2023-02-01T04:10:12.348Z,97549.41
2023-02-01T04:15:05.159Z,97555.25
2023-02-01T04:19:57.247Z,97556.22
2023-02-01T04:24:49.250Z,97566.28
2023-02-01T04:29:41.877Z,97579.75
2023-02-01T04:34:33.790Z,97577.28
2023-02-01T04:39:25.515Z,97592.22
2023-02-01T04:44:19.399Z,97602.28
2023-02-01T04:49:12.602Z,97608.94
2023-02-01T04:54:05.034Z,97613.13
2023-02-01T04:58:56.948Z,97619.16
2023-02-01T05:09:03.594Z,97594.19
2023-02-01T05:19:03.767Z,97582.81
2023-02-01T05:29:24.038Z,97552.00
2023-02-01T05:39:31.236Z,97572.28
2023-02-01T07:11:26.940Z,97652.06
2023-02-01T08:33:24.282Z,97640.22
2023-02-01T16:38:34.675Z,97629.31
2023-02-01T16:59:04.276Z,97632.91
2023-02-01T18:27:01.807Z,97610.84
2023-02-01T21:11:35.868Z,97691.41
2023-02-01T21:16:36.536Z,97705.38
2023-02-01T21:52:34.743Z,97686.22
2023-02-01T23:09:43.532Z,97708.75
2023-02-01T23:25:12.921Z,97710.88
